Strona główna
METAR-TAF:

METAR-TAF

Lotnisko :

Port lotniczy Chambéry-Savoie

Chambery / Aix-Les-Bains, Francja

Szerokość geograficzna: 45-39N, Długość geograficzna: 005-53E, wysokość: 235 m

Aktualna obserwacja pogody

Raport powstał 25 minut temu, godzina 08:00 UTC
Wiatr 2 kt z kierunków zmiennych
Temperatura 19°C
Wilgotność 46%
Ciśnienie 1027 hPa
Widzialność 10 km lub więcej
Brak chmur poniżej 1500 m i brak chmur cumulonimbus

METAR: LFLB 280800Z AUTO VRB02KT CAVOK 19/07 Q1027 NOSIG

czas: 10:25 (08:25 UTC)

Prognoza

Raport powstał 3 godziny i 25 minut temu, godzina 05:00 UTC
Prognoza ważna od 28 godzina 06 UTC do 29 godzina 06 UTC
Wiatr 5 kt od północ
Widzialność 10 km lub więcej
Brak chmur poniżej 1500 m i brak chmur cumulonimbus
Przejściowo
od 28 godzina 12 UTC do 29 godzina 06 UTC
Wiatr 12 kt od północ

TAF: LFLB 280500Z 2806/2906 36005KT CAVOK TEMPO 2812/2906 36012KT

Obserwacja i prognoza pogody dla ponad 4000 lotnisk (raport METAR i TAF).

Dostępne stacje oznaczono żółtymi i czerwonymi punktami na mapie.

Najedź kursorem aby zobaczyć nazwę stacji.

Kliknij aby zobaczyć obserwacje i prognozy pogody.

Aby zmienić mapę: kliknij na zielony przycisk z czarnym krzyżykiem, aby powiększyć; na zielony przycisk z myślnikiem, aby pomniejszyć; na zielone strzałki, aby przejść do map sąsiednich.


METAR-TAF: